Etusivu
METAR-TAF:

METAR-TAF

Lentoasemat :

Chugiak, Alaska, Yhdysvallat

Leveyspiiri: 61-25N, Pituuspiiri: 149-31W, korkeus merenpinnasta: 29 m

Tämänhetkinen sää

Tämä raportti tehtiin 39 minuuttia sitten, kello 15.56 UTC
tyyntä
Lämpötila 12°C
Kosteus 88%
Ilmanpaine 1028 hPa
Näkyvyys: 16.1 km
Pilvistä 1000 ft:n korkeudessa

METAR: PABV 201556Z AUTO 00000KT 10SM OVC010 12/10 A3035 RMK AO2 SLP285 T01220100 PNO $

Aika: 08:35 (16:35 UTC)


TAF: puuttuu

Säähavainnot ja -ennusteet yli 4000 lentoasemalta (METAR- ja TAF-raportit).

Käytössä olevat sääasemat on merkitty karttaan keltaisilla ja punaisilla pisteillä.

Aseta hiiri pisteen päälle nähdäksesi sääaseman nimen.

Klikkaa sitten nähdäksesi säähavainnot ja -ennusteet.

Kartan vaihtaminen: klikkaa mustalla rastilla varustettuja vihreitä pisteitä, niin voit zoomata sisään; viivalla varustettua vihreää pistettä, niin voit zoomata ulos tai vihreitä nuolia, niin pääset viereisille kartoille.


METAR-TAF: